sensor_id;sensor_type;location;lat;lon;timestamp;pressure;altitude;pressure_sealevel;temperature
27986;BMP280;15453;53.692;10.168;2023-05-07T00:00:40;101854.97;;;13.51
27986;BMP280;15453;53.692;10.168;2023-05-07T00:03:05;101850.06;;;13.53
27986;BMP280;15453;53.692;10.168;2023-05-07T00:05:31;101856.06;;;13.50
27986;BMP280;15453;53.692;10.168;2023-05-07T00:07:57;101849.72;;;13.50
27986;BMP280;15453;53.692;10.168;2023-05-07T00:10:22;101861.31;;;13.52
27986;BMP280;15453;53.692;10.168;2023-05-07T00:12:47;101863.47;;;13.50
27986;BMP280;15453;53.692;10.168;2023-05-07T00:15:13;101863.47;;;13.50
27986;BMP280;15453;53.692;10.168;2023-05-07T00:17:38;101869.56;;;13.52
27986;BMP280;15453;53.692;10.168;2023-05-07T00:20:04;101869.56;;;13.52
27986;BMP280;15453;53.692;10.168;2023-05-07T00:22:30;101852.22;;;13.51
27986;BMP280;15453;53.692;10.168;2023-05-07T00:24:56;101856.66;;;13.52
27986;BMP280;15453;53.692;10.168;2023-05-07T00:27:22;101860.50;;;13.51
27986;BMP280;15453;53.692;10.168;2023-05-07T00:29:47;101863.34;;;13.56
27986;BMP280;15453;53.692;10.168;2023-05-07T00:32:12;101863.34;;;13.56
27986;BMP280;15453;53.692;10.168;2023-05-07T00:34:37;101859.16;;;13.54
27986;BMP280;15453;53.692;10.168;2023-05-07T00:37:04;101858.19;;;13.60
27986;BMP280;15453;53.692;10.168;2023-05-07T00:39:29;101869.81;;;13.62
27986;BMP280;15453;53.692;10.168;2023-05-07T00:41:55;101856.28;;;13.60
27986;BMP280;15453;53.692;10.168;2023-05-07T00:44:20;101857.13;;;13.61
27986;BMP280;15453;53.692;10.168;2023-05-07T00:46:45;101858.69;;;13.57
27986;BMP280;15453;53.692;10.168;2023-05-07T00:49:13;101858.69;;;13.57
27986;BMP280;15453;53.692;10.168;2023-05-07T00:51:39;101854.75;;;13.53
27986;BMP280;15453;53.692;10.168;2023-05-07T00:54:04;101856.66;;;13.52
27986;BMP280;15453;53.692;10.168;2023-05-07T00:56:31;101853.56;;;13.49
27986;BMP280;15453;53.692;10.168;2023-05-07T00:58:56;101850.56;;;13.50
27986;BMP280;15453;53.692;10.168;2023-05-07T01:01:22;101854.38;;;13.49
27986;BMP280;15453;53.692;10.168;2023-05-07T01:03:47;101854.38;;;13.49
27986;BMP280;15453;53.692;10.168;2023-05-07T01:06:13;101858.81;;;13.50
27986;BMP280;15453;53.692;10.168;2023-05-07T01:08:41;101861.56;;;13.50
27986;BMP280;15453;53.692;10.168;2023-05-07T01:11:07;101861.56;;;13.50
27986;BMP280;15453;53.692;10.168;2023-05-07T01:13:35;101849.94;;;13.48
27986;BMP280;15453;53.692;10.168;2023-05-07T01:16:00;101858.31;;;13.53
27986;BMP280;15453;53.692;10.168;2023-05-07T01:18:26;101858.31;;;13.53
27986;BMP280;15453;53.692;10.168;2023-05-07T01:20:52;101849.47;;;13.51
27986;BMP280;15453;53.692;10.168;2023-05-07T01:23:17;101853.66;;;13.54
27986;BMP280;15453;53.692;10.168;2023-05-07T01:25:43;101860.00;;;13.54
27986;BMP280;15453;53.692;10.168;2023-05-07T01:28:08;101856.66;;;13.52
27986;BMP280;15453;53.692;10.168;2023-05-07T01:30:34;101849.72;;;13.50
27986;BMP280;15453;53.692;10.168;2023-05-07T01:33:04;101849.72;;;13.50
27986;BMP280;15453;53.692;10.168;2023-05-07T01:35:37;101850.19;;;13.47
27986;BMP280;15453;53.692;10.168;2023-05-07T01:38:03;101843.50;;;13.43
27986;BMP280;15453;53.692;10.168;2023-05-07T01:40:31;101837.31;;;13.36
27986;BMP280;15453;53.692;10.168;2023-05-07T01:42:56;101853.44;;;13.32
27986;BMP280;15453;53.692;10.168;2023-05-07T01:45:22;101840.19;;;13.29
27986;BMP280;15453;53.692;10.168;2023-05-07T01:47:49;101847.59;;;13.29
27986;BMP280;15453;53.692;10.168;2023-05-07T01:50:17;101847.59;;;13.29
27986;BMP280;15453;53.692;10.168;2023-05-07T01:52:43;101856.06;;;13.27
27986;BMP280;15453;53.692;10.168;2023-05-07T01:55:08;101848.91;;;13.26
27986;BMP280;15453;53.692;10.168;2023-05-07T01:57:34;101848.66;;;13.28
27986;BMP280;15453;53.692;10.168;2023-05-07T01:59:59;101848.66;;;13.28
27986;BMP280;15453;53.692;10.168;2023-05-07T02:02:24;101840.19;;;13.29
27986;BMP280;15453;53.692;10.168;2023-05-07T02:04:50;101839.91;;;13.31
27986;BMP280;15453;53.692;10.168;2023-05-07T02:07:15;101844.59;;;13.30
27986;BMP280;15453;53.692;10.168;2023-05-07T02:09:40;101844.59;;;13.30
27986;BMP280;15453;53.692;10.168;2023-05-07T02:12:06;101842.66;;;13.31
27986;BMP280;15453;53.692;10.168;2023-05-07T02:14:31;101854.28;;;13.33
27986;BMP280;15453;53.692;10.168;2023-05-07T02:16:56;101858.69;;;13.34
27986;BMP280;15453;53.692;10.168;2023-05-07T02:19:21;101858.69;;;13.34
27986;BMP280;15453;53.692;10.168;2023-05-07T02:21:47;101854.53;;;13.31
27986;BMP280;15453;53.692;10.168;2023-05-07T02:24:12;101873.31;;;13.34
27986;BMP280;15453;53.692;10.168;2023-05-07T02:26:40;101873.31;;;13.34
27986;BMP280;15453;53.692;10.168;2023-05-07T02:29:05;101867.81;;;13.34
27986;BMP280;15453;53.692;10.168;2023-05-07T02:31:30;101863.97;;;13.35
27986;BMP280;15453;53.692;10.168;2023-05-07T02:33:55;101873.31;;;13.34
27986;BMP280;15453;53.692;10.168;2023-05-07T02:36:21;101868.63;;;13.35
27986;BMP280;15453;53.692;10.168;2023-05-07T02:38:46;101878.59;;;13.36
27986;BMP280;15453;53.692;10.168;2023-05-07T02:41:11;101875.56;;;13.37
27986;BMP280;15453;53.692;10.168;2023-05-07T02:43:36;101876.41;;;13.38
27986;BMP280;15453;53.692;10.168;2023-05-07T02:46:07;101869.81;;;13.39
27986;BMP280;15453;53.692;10.168;2023-05-07T02:48:32;101868.16;;;13.38
27986;BMP280;15453;53.692;10.168;2023-05-07T02:50:58;101868.16;;;13.38
27986;BMP280;15453;53.692;10.168;2023-05-07T02:53:24;101879.16;;;13.38
27986;BMP280;15453;53.692;10.168;2023-05-07T02:55:58;101884.66;;;13.38
27986;BMP280;15453;53.692;10.168;2023-05-07T02:58:23;101881.91;;;13.38
27986;BMP280;15453;53.692;10.168;2023-05-07T03:00:49;101882.16;;;13.36
27986;BMP280;15453;53.692;10.168;2023-05-07T03:03:14;101874.50;;;13.38
27986;BMP280;15453;53.692;10.168;2023-05-07T03:05:40;101874.50;;;13.38
27986;BMP280;15453;53.692;10.168;2023-05-07T03:08:06;101883.22;;;13.35
27986;BMP280;15453;53.692;10.168;2023-05-07T03:10:31;101882.38;;;13.35
27986;BMP280;15453;53.692;10.168;2023-05-07T03:12:56;101876.06;;;13.34
27986;BMP280;15453;53.692;10.168;2023-05-07T03:15:21;101877.63;;;13.30
27986;BMP280;15453;53.692;10.168;2023-05-07T03:17:47;101877.63;;;13.30
27986;BMP280;15453;53.692;10.168;2023-05-07T03:20:13;101873.66;;;13.26
27986;BMP280;15453;53.692;10.168;2023-05-07T03:22:38;101869.59;;;13.29
27986;BMP280;15453;53.692;10.168;2023-05-07T03:25:04;101878.09;;;13.27
27986;BMP280;15453;53.692;10.168;2023-05-07T03:27:29;101878.09;;;13.27
27986;BMP280;15453;53.692;10.168;2023-05-07T03:29:55;101879.16;;;13.26
27986;BMP280;15453;53.692;10.168;2023-05-07T03:32:20;101879.16;;;13.26
27986;BMP280;15453;53.692;10.168;2023-05-07T03:34:45;101885.50;;;13.27
27986;BMP280;15453;53.692;10.168;2023-05-07T03:37:11;101886.81;;;13.24
27986;BMP280;15453;53.692;10.168;2023-05-07T03:39:36;101880.25;;;13.25
27986;BMP280;15453;53.692;10.168;2023-05-07T03:42:02;101888.97;;;13.22
27986;BMP280;15453;53.692;10.168;2023-05-07T03:44:27;101886.22;;;13.22
27986;BMP280;15453;53.692;10.168;2023-05-07T03:46:53;101889.56;;;13.24
27986;BMP280;15453;53.692;10.168;2023-05-07T03:49:18;101884.06;;;13.24
27986;BMP280;15453;53.692;10.168;2023-05-07T03:51:43;101884.06;;;13.24
27986;BMP280;15453;53.692;10.168;2023-05-07T03:54:08;101893.75;;;13.27
27986;BMP280;15453;53.692;10.168;2023-05-07T03:56:34;101889.94;;;13.28
27986;BMP280;15453;53.692;10.168;2023-05-07T03:59:00;101889.94;;;13.28
27986;BMP280;15453;53.692;10.168;2023-05-07T04:01:26;101881.31;;;13.24
27986;BMP280;15453;53.692;10.168;2023-05-07T04:03:52;101895.44;;;13.28
27986;BMP280;15453;53.692;10.168;2023-05-07T04:06:17;101896.03;;;13.30
27986;BMP280;15453;53.692;10.168;2023-05-07T04:08:42;101896.03;;;13.30
27986;BMP280;15453;53.692;10.168;2023-05-07T04:11:07;101896.88;;;13.30
27986;BMP280;15453;53.692;10.168;2023-05-07T04:13:33;101900.72;;;13.29
27986;BMP280;15453;53.692;10.168;2023-05-07T04:15:58;101900.72;;;13.29
27986;BMP280;15453;53.692;10.168;2023-05-07T04:18:23;101908.72;;;13.31
27986;BMP280;15453;53.692;10.168;2023-05-07T04:20:49;101912.06;;;13.33
27986;BMP280;15453;53.692;10.168;2023-05-07T04:23:15;101911.84;;;13.34
27986;BMP280;15453;53.692;10.168;2023-05-07T04:25:40;101911.84;;;13.34
27986;BMP280;15453;53.692;10.168;2023-05-07T04:28:05;101900.81;;;13.34
27986;BMP280;15453;53.692;10.168;2023-05-07T04:30:31;101905.25;;;13.35
27986;BMP280;15453;53.692;10.168;2023-05-07T04:32:56;101905.25;;;13.35
27986;BMP280;15453;53.692;10.168;2023-05-07T04:35:22;101912.66;;;13.35
27986;BMP280;15453;53.692;10.168;2023-05-07T04:37:47;101911.84;;;13.34
27986;BMP280;15453;53.692;10.168;2023-05-07T04:40:12;101901.66;;;13.35
27986;BMP280;15453;53.692;10.168;2023-05-07T04:42:37;101913.50;;;13.35
27986;BMP280;15453;53.692;10.168;2023-05-07T04:45:03;101913.50;;;13.35
27986;BMP280;15453;53.692;10.168;2023-05-07T04:47:29;101916.03;;;13.37
27986;BMP280;15453;53.692;10.168;2023-05-07T04:49:55;101910.75;;;13.35
27986;BMP280;15453;53.692;10.168;2023-05-07T04:52:20;101917.34;;;13.34
27986;BMP280;15453;53.692;10.168;2023-05-07T04:54:45;101917.34;;;13.34
27986;BMP280;15453;53.692;10.168;2023-05-07T04:57:10;101904.06;;;13.31
27986;BMP280;15453;53.692;10.168;2023-05-07T04:59:36;101916.72;;;13.32
27986;BMP280;15453;53.692;10.168;2023-05-07T05:02:01;101911.72;;;13.29
27986;BMP280;15453;53.692;10.168;2023-05-07T05:04:26;101915.06;;;13.31
27986;BMP280;15453;53.692;10.168;2023-05-07T05:06:52;101923.53;;;13.30
27986;BMP280;15453;53.692;10.168;2023-05-07T05:09:17;101923.53;;;13.30
27986;BMP280;15453;53.692;10.168;2023-05-07T05:11:42;101928.81;;;13.31
27986;BMP280;15453;53.692;10.168;2023-05-07T05:14:08;101928.81;;;13.31
27986;BMP280;15453;53.692;10.168;2023-05-07T05:16:34;101931.91;;;13.35
27986;BMP280;15453;53.692;10.168;2023-05-07T05:18:59;101931.91;;;13.35
27986;BMP280;15453;53.692;10.168;2023-05-07T05:21:24;101928.13;;;13.36
27986;BMP280;15453;53.692;10.168;2023-05-07T05:23:50;101929.78;;;13.37
27986;BMP280;15453;53.692;10.168;2023-05-07T05:26:15;101935.88;;;13.39
27986;BMP280;15453;53.692;10.168;2023-05-07T05:28:40;101935.88;;;13.39
27986;BMP280;15453;53.692;10.168;2023-05-07T05:31:06;101939.69;;;13.38
27986;BMP280;15453;53.692;10.168;2023-05-07T05:33:31;101939.69;;;13.38
27986;BMP280;15453;53.692;10.168;2023-05-07T05:35:56;101936.72;;;13.39
27986;BMP280;15453;53.692;10.168;2023-05-07T05:38:22;101931.44;;;13.38
27986;BMP280;15453;53.692;10.168;2023-05-07T05:40:47;101941.38;;;13.39
27986;BMP280;15453;53.692;10.168;2023-05-07T05:43:13;101943.06;;;13.40
27986;BMP280;15453;53.692;10.168;2023-05-07T05:45:39;101944.75;;;13.41
27986;BMP280;15453;53.692;10.168;2023-05-07T05:48:04;101937.31;;;13.41
27986;BMP280;15453;53.692;10.168;2023-05-07T05:50:29;101939.22;;;13.41
27986;BMP280;15453;53.692;10.168;2023-05-07T05:52:55;101933.13;;;13.39
27986;BMP280;15453;53.692;10.168;2023-05-07T05:55:21;101940.91;;;13.42
27986;BMP280;15453;53.692;10.168;2023-05-07T05:57:47;101942.00;;;13.41
27986;BMP280;15453;53.692;10.168;2023-05-07T06:00:13;101946.63;;;13.40
27986;BMP280;15453;53.692;10.168;2023-05-07T06:02:38;101952.75;;;13.42
27986;BMP280;15453;53.692;10.168;2023-05-07T06:05:04;101955.00;;;13.45
27986;BMP280;15453;53.692;10.168;2023-05-07T06:07:29;101958.63;;;13.46
27986;BMP280;15453;53.692;10.168;2023-05-07T06:09:54;101960.03;;;13.48
27986;BMP280;15453;53.692;10.168;2023-05-07T06:12:20;101960.03;;;13.48
27986;BMP280;15453;53.692;10.168;2023-05-07T06:14:46;101946.28;;;13.48
27986;BMP280;15453;53.692;10.168;2023-05-07T06:17:11;101950.13;;;13.47
27986;BMP280;15453;53.692;10.168;2023-05-07T06:19:36;101956.34;;;13.54
27986;BMP280;15453;53.692;10.168;2023-05-07T06:22:02;101956.34;;;13.54
27986;BMP280;15453;53.692;10.168;2023-05-07T06:24:27;101952.63;;;13.60
27986;BMP280;15453;53.692;10.168;2023-05-07T06:26:53;101957.06;;;13.61
27986;BMP280;15453;53.692;10.168;2023-05-07T06:29:18;101954.69;;;13.65
27986;BMP280;15453;53.692;10.168;2023-05-07T06:31:43;101952.50;;;13.67
27986;BMP280;15453;53.692;10.168;2023-05-07T06:34:08;101952.50;;;13.67
27986;BMP280;15453;53.692;10.168;2023-05-07T06:36:34;101952.50;;;13.67
27986;BMP280;15453;53.692;10.168;2023-05-07T06:39:00;101962.91;;;13.76
27986;BMP280;15453;53.692;10.168;2023-05-07T06:41:25;101962.91;;;13.76
27986;BMP280;15453;53.692;10.168;2023-05-07T06:43:50;101965.69;;;13.76
27986;BMP280;15453;53.692;10.168;2023-05-07T06:46:16;101962.56;;;13.84
27986;BMP280;15453;53.692;10.168;2023-05-07T06:48:41;101947.22;;;13.88
27986;BMP280;15453;53.692;10.168;2023-05-07T06:51:06;101952.22;;;13.91
27986;BMP280;15453;53.692;10.168;2023-05-07T06:53:32;101952.22;;;13.91
27986;BMP280;15453;53.692;10.168;2023-05-07T06:55:57;101951.41;;;13.91
27986;BMP280;15453;53.692;10.168;2023-05-07T06:58:22;101957.03;;;13.96
27986;BMP280;15453;53.692;10.168;2023-05-07T07:00:48;101947.66;;;13.97
27986;BMP280;15453;53.692;10.168;2023-05-07T07:03:13;101955.66;;;14.10
27986;BMP280;15453;53.692;10.168;2023-05-07T07:05:40;101958.78;;;14.13
27986;BMP280;15453;53.692;10.168;2023-05-07T07:08:06;101962.75;;;14.17
27986;BMP280;15453;53.692;10.168;2023-05-07T07:10:31;101963.31;;;14.19
27986;BMP280;15453;53.692;10.168;2023-05-07T07:12:56;101961.19;;;14.21
27986;BMP280;15453;53.692;10.168;2023-05-07T07:15:21;101961.19;;;14.21
27986;BMP280;15453;53.692;10.168;2023-05-07T07:17:48;101962.41;;;14.25
27986;BMP280;15453;53.692;10.168;2023-05-07T07:20:13;101962.41;;;14.25
27986;BMP280;15453;53.692;10.168;2023-05-07T07:22:38;101964.41;;;14.30
27986;BMP280;15453;53.692;10.168;2023-05-07T07:25:04;101975.19;;;14.31
27986;BMP280;15453;53.692;10.168;2023-05-07T07:27:29;101965.59;;;14.34
27986;BMP280;15453;53.692;10.168;2023-05-07T07:29:55;101965.59;;;14.34
27986;BMP280;15453;53.692;10.168;2023-05-07T07:32:20;101953.47;;;14.35
27986;BMP280;15453;53.692;10.168;2023-05-07T07:34:46;101958.16;;;14.34
27986;BMP280;15453;53.692;10.168;2023-05-07T07:37:11;101959.59;;;14.37
27986;BMP280;15453;53.692;10.168;2023-05-07T07:39:36;101959.59;;;14.37
27986;BMP280;15453;53.692;10.168;2023-05-07T07:42:04;101957.16;;;14.40
27986;BMP280;15453;53.692;10.168;2023-05-07T07:44:30;101957.16;;;14.40
27986;BMP280;15453;53.692;10.168;2023-05-07T07:46:55;101963.88;;;14.44
27986;BMP280;15453;53.692;10.168;2023-05-07T07:49:20;101962.53;;;14.47
27986;BMP280;15453;53.692;10.168;2023-05-07T07:51:45;101969.47;;;14.49
27986;BMP280;15453;53.692;10.168;2023-05-07T07:54:11;101969.47;;;14.49
27986;BMP280;15453;53.692;10.168;2023-05-07T07:56:36;101965.16;;;14.53
27986;BMP280;15453;53.692;10.168;2023-05-07T07:59:02;101965.16;;;14.53
27986;BMP280;15453;53.692;10.168;2023-05-07T08:01:29;101978.22;;;14.58
27986;BMP280;15453;53.692;10.168;2023-05-07T08:03:55;101978.78;;;14.60
27986;BMP280;15453;53.692;10.168;2023-05-07T08:06:20;101978.78;;;14.60
27986;BMP280;15453;53.692;10.168;2023-05-07T08:08:45;101973.19;;;14.55
27986;BMP280;15453;53.692;10.168;2023-05-07T08:11:11;101975.06;;;14.66
27986;BMP280;15453;53.692;10.168;2023-05-07T08:13:37;101975.06;;;14.66
27986;BMP280;15453;53.692;10.168;2023-05-07T08:16:03;101979.56;;;14.72
27986;BMP280;15453;53.692;10.168;2023-05-07T08:18:29;101984.59;;;14.75
27986;BMP280;15453;53.692;10.168;2023-05-07T08:20:54;101984.59;;;14.75
27986;BMP280;15453;53.692;10.168;2023-05-07T08:23:20;101979.19;;;14.80
27986;BMP280;15453;53.692;10.168;2023-05-07T08:25:46;101982.03;;;14.85
27986;BMP280;15453;53.692;10.168;2023-05-07T08:28:11;101982.03;;;14.85
27986;BMP280;15453;53.692;10.168;2023-05-07T08:30:36;101981.22;;;14.84
27986;BMP280;15453;53.692;10.168;2023-05-07T08:33:02;101985.47;;;14.92
27986;BMP280;15453;53.692;10.168;2023-05-07T08:35:27;101985.81;;;14.95
27986;BMP280;15453;53.692;10.168;2023-05-07T08:37:53;101987.28;;;14.98
27986;BMP280;15453;53.692;10.168;2023-05-07T08:40:18;101987.28;;;14.98
27986;BMP280;15453;53.692;10.168;2023-05-07T08:42:49;101975.38;;;14.97
27986;BMP280;15453;53.692;10.168;2023-05-07T08:45:15;101987.84;;;15.00
27986;BMP280;15453;53.692;10.168;2023-05-07T08:47:46;101996.56;;;15.08
27986;BMP280;15453;53.692;10.168;2023-05-07T08:50:12;101996.56;;;15.08
27986;BMP280;15453;53.692;10.168;2023-05-07T08:52:38;101993.81;;;15.08
27986;BMP280;15453;53.692;10.168;2023-05-07T08:55:04;101993.81;;;15.08
27986;BMP280;15453;53.692;10.168;2023-05-07T08:57:30;101999.91;;;15.10
27986;BMP280;15453;53.692;10.168;2023-05-07T08:59:55;101999.06;;;15.10
27986;BMP280;15453;53.692;10.168;2023-05-07T09:02:20;102002.16;;;15.13
27986;BMP280;15453;53.692;10.168;2023-05-07T09:04:45;102002.16;;;15.13
27986;BMP280;15453;53.692;10.168;2023-05-07T09:07:11;102001.16;;;15.19
27986;BMP280;15453;53.692;10.168;2023-05-07T09:09:37;102001.16;;;15.19
27986;BMP280;15453;53.692;10.168;2023-05-07T09:12:02;102002.00;;;15.20
27986;BMP280;15453;53.692;10.168;2023-05-07T09:14:29;102015.31;;;15.23
27986;BMP280;15453;53.692;10.168;2023-05-07T09:16:56;102013.13;;;15.25
27986;BMP280;15453;53.692;10.168;2023-05-07T09:19:25;102013.13;;;15.25
27986;BMP280;15453;53.692;10.168;2023-05-07T09:22:03;102010.88;;;15.22
27986;BMP280;15453;53.692;10.168;2023-05-07T09:24:29;102015.72;;;15.31
27986;BMP280;15453;53.692;10.168;2023-05-07T09:26:59;102015.72;;;15.31
27986;BMP280;15453;53.692;10.168;2023-05-07T09:29:26;102015.72;;;15.31
27986;BMP280;15453;53.692;10.168;2023-05-07T09:31:54;102022.91;;;15.32
27986;BMP280;15453;53.692;10.168;2023-05-07T09:34:19;102022.28;;;15.42
27986;BMP280;15453;53.692;10.168;2023-05-07T09:36:45;102023.72;;;15.44
27986;BMP280;15453;53.692;10.168;2023-05-07T09:39:10;102021.81;;;15.45
27986;BMP280;15453;53.692;10.168;2023-05-07T09:41:43;102025.66;;;15.44
27986;BMP280;15453;53.692;10.168;2023-05-07T09:44:09;102022.97;;;15.49
27986;BMP280;15453;53.692;10.168;2023-05-07T09:46:36;102022.97;;;15.49
27986;BMP280;15453;53.692;10.168;2023-05-07T09:49:06;102011.50;;;15.57
27986;BMP280;15453;53.692;10.168;2023-05-07T09:51:58;102022.22;;;15.53
27986;BMP280;15453;53.692;10.168;2023-05-07T09:54:24;102016.78;;;15.58
27986;BMP280;15453;53.692;10.168;2023-05-07T09:56:51;102016.63;;;15.65
27986;BMP280;15453;53.692;10.168;2023-05-07T09:59:17;102016.63;;;15.65
27986;BMP280;15453;53.692;10.168;2023-05-07T10:01:43;102013.56;;;15.66
27986;BMP280;15453;53.692;10.168;2023-05-07T10:04:10;102030.47;;;15.86
27986;BMP280;15453;53.692;10.168;2023-05-07T10:06:35;102030.47;;;15.86
27986;BMP280;15453;53.692;10.168;2023-05-07T10:09:02;102019.59;;;15.96
27986;BMP280;15453;53.692;10.168;2023-05-07T10:11:28;102019.59;;;15.96
27986;BMP280;15453;53.692;10.168;2023-05-07T10:13:53;102026.66;;;16.09
27986;BMP280;15453;53.692;10.168;2023-05-07T10:16:19;102026.66;;;16.09
27986;BMP280;15453;53.692;10.168;2023-05-07T10:18:46;102022.56;;;16.11
27986;BMP280;15453;53.692;10.168;2023-05-07T10:21:16;102028.81;;;16.23
27986;BMP280;15453;53.692;10.168;2023-05-07T10:23:45;102028.81;;;16.23
27986;BMP280;15453;53.692;10.168;2023-05-07T10:26:11;102019.88;;;16.38
27986;BMP280;15453;53.692;10.168;2023-05-07T10:28:39;102018.31;;;16.42
27986;BMP280;15453;53.692;10.168;2023-05-07T10:34:07;102017.34;;;16.53
27986;BMP280;15453;53.692;10.168;2023-05-07T10:36:34;102014.97;;;16.61
27986;BMP280;15453;53.692;10.168;2023-05-07T10:39:01;102024.16;;;16.67
27986;BMP280;15453;53.692;10.168;2023-05-07T10:41:26;102025.81;;;16.68
27986;BMP280;15453;53.692;10.168;2023-05-07T10:43:51;102025.97;;;16.78
27986;BMP280;15453;53.692;10.168;2023-05-07T10:46:18;102025.97;;;16.78
27986;BMP280;15453;53.692;10.168;2023-05-07T10:49:14;102017.00;;;16.92
27986;BMP280;15453;53.692;10.168;2023-05-07T10:51:40;102016.81;;;17.04
27986;BMP280;15453;53.692;10.168;2023-05-07T10:56:45;102000.00;;;17.10
27986;BMP280;15453;53.692;10.168;2023-05-07T11:01:58;102002.59;;;17.49
27986;BMP280;15453;53.692;10.168;2023-05-07T11:04:25;102002.59;;;17.49
27986;BMP280;15453;53.692;10.168;2023-05-07T11:15:01;101989.63;;;17.96
27986;BMP280;15453;53.692;10.168;2023-05-07T11:17:27;101989.63;;;17.96
27986;BMP280;15453;53.692;10.168;2023-05-07T11:19:56;101987.25;;;18.14
27986;BMP280;15453;53.692;10.168;2023-05-07T11:24:55;101988.94;;;18.20
27986;BMP280;15453;53.692;10.168;2023-05-07T11:27:24;101995.47;;;18.46
27986;BMP280;15453;53.692;10.168;2023-05-07T11:29:50;101995.47;;;18.46
27986;BMP280;15453;53.692;10.168;2023-05-07T11:32:15;101983.63;;;18.65
27986;BMP280;15453;53.692;10.168;2023-05-07T11:34:47;101983.63;;;18.65
27986;BMP280;15453;53.692;10.168;2023-05-07T11:37:16;101981.69;;;18.71
27986;BMP280;15453;53.692;10.168;2023-05-07T11:39:42;101991.19;;;18.90
27986;BMP280;15453;53.692;10.168;2023-05-07T11:42:25;101987.59;;;18.94
27986;BMP280;15453;53.692;10.168;2023-05-07T11:44:50;101987.59;;;18.94
27986;BMP280;15453;53.692;10.168;2023-05-07T11:47:19;101973.97;;;19.03
27986;BMP280;15453;53.692;10.168;2023-05-07T11:49:48;101968.16;;;19.14
27986;BMP280;15453;53.692;10.168;2023-05-07T11:52:14;101972.09;;;19.33
27986;BMP280;15453;53.692;10.168;2023-05-07T11:54:40;101972.09;;;19.33
27986;BMP280;15453;53.692;10.168;2023-05-07T11:57:05;101964.88;;;19.37
27986;BMP280;15453;53.692;10.168;2023-05-07T11:59:38;101970.72;;;19.56
27986;BMP280;15453;53.692;10.168;2023-05-07T12:02:06;101970.72;;;19.56
27986;BMP280;15453;53.692;10.168;2023-05-07T12:04:31;101964.28;;;19.70
27986;BMP280;15453;53.692;10.168;2023-05-07T12:06:56;101967.06;;;19.75
27986;BMP280;15453;53.692;10.168;2023-05-07T12:09:22;101967.06;;;19.75
27986;BMP280;15453;53.692;10.168;2023-05-07T12:11:47;101953.72;;;19.82
27986;BMP280;15453;53.692;10.168;2023-05-07T12:14:12;101959.53;;;19.86
27986;BMP280;15453;53.692;10.168;2023-05-07T12:16:39;101959.53;;;19.86
27986;BMP280;15453;53.692;10.168;2023-05-07T12:19:05;101960.66;;;19.85
27986;BMP280;15453;53.692;10.168;2023-05-07T12:21:33;101958.69;;;19.95
27986;BMP280;15453;53.692;10.168;2023-05-07T12:23:58;101958.69;;;19.95
27986;BMP280;15453;53.692;10.168;2023-05-07T12:26:24;101962.81;;;20.03
27986;BMP280;15453;53.692;10.168;2023-05-07T12:28:49;101962.81;;;20.03
27986;BMP280;15453;53.692;10.168;2023-05-07T12:31:15;101956.72;;;20.11
27986;BMP280;15453;53.692;10.168;2023-05-07T12:33:41;101961.69;;;20.19
27986;BMP280;15453;53.692;10.168;2023-05-07T12:36:07;101961.69;;;20.19
27986;BMP280;15453;53.692;10.168;2023-05-07T12:38:39;101973.34;;;20.31
27986;BMP280;15453;53.692;10.168;2023-05-07T12:41:07;101973.34;;;20.31
27986;BMP280;15453;53.692;10.168;2023-05-07T12:43:32;101971.31;;;20.46
27986;BMP280;15453;53.692;10.168;2023-05-07T12:46:03;101971.28;;;20.51
27986;BMP280;15453;53.692;10.168;2023-05-07T12:48:29;101971.28;;;20.51
27986;BMP280;15453;53.692;10.168;2023-05-07T12:50:56;101961.75;;;20.67
27986;BMP280;15453;53.692;10.168;2023-05-07T12:53:24;101961.75;;;20.67
27986;BMP280;15453;53.692;10.168;2023-05-07T12:55:54;101968.69;;;20.75
27986;BMP280;15453;53.692;10.168;2023-05-07T12:58:24;101968.69;;;20.75
27986;BMP280;15453;53.692;10.168;2023-05-07T13:00:50;101961.72;;;20.72
27986;BMP280;15453;53.692;10.168;2023-05-07T13:03:32;101973.72;;;20.68
27986;BMP280;15453;53.692;10.168;2023-05-07T13:06:00;101973.72;;;20.68
27986;BMP280;15453;53.692;10.168;2023-05-07T13:08:46;101971.78;;;20.63
27986;BMP280;15453;53.692;10.168;2023-05-07T13:11:11;101964.84;;;20.61
27986;BMP280;15453;53.692;10.168;2023-05-07T13:13:38;101963.47;;;20.58
27986;BMP280;15453;53.692;10.168;2023-05-07T13:16:06;101963.47;;;20.58
27986;BMP280;15453;53.692;10.168;2023-05-07T13:18:33;101949.31;;;20.55
27986;BMP280;15453;53.692;10.168;2023-05-07T13:20:58;101952.63;;;20.57
27986;BMP280;15453;53.692;10.168;2023-05-07T13:23:24;101952.63;;;20.57
27986;BMP280;15453;53.692;10.168;2023-05-07T13:25:50;101954.59;;;20.56
27986;BMP280;15453;53.692;10.168;2023-05-07T13:28:16;101947.31;;;20.60
27986;BMP280;15453;53.692;10.168;2023-05-07T13:30:42;101945.75;;;20.88
27986;BMP280;15453;53.692;10.168;2023-05-07T13:33:08;101945.75;;;20.88
27986;BMP280;15453;53.692;10.168;2023-05-07T13:35:34;101950.44;;;20.97
27986;BMP280;15453;53.692;10.168;2023-05-07T13:37:59;101948.34;;;21.18
27986;BMP280;15453;53.692;10.168;2023-05-07T13:40:24;101949.97;;;21.24
27986;BMP280;15453;53.692;10.168;2023-05-07T13:42:50;101949.97;;;21.24
27986;BMP280;15453;53.692;10.168;2023-05-07T13:45:16;101957.06;;;21.40
27986;BMP280;15453;53.692;10.168;2023-05-07T13:47:42;101957.06;;;21.40
27986;BMP280;15453;53.692;10.168;2023-05-07T13:50:08;101939.72;;;21.48
27986;BMP280;15453;53.692;10.168;2023-05-07T13:52:34;101945.91;;;21.68
27986;BMP280;15453;53.692;10.168;2023-05-07T13:54:59;101944.25;;;21.72
27986;BMP280;15453;53.692;10.168;2023-05-07T13:57:25;101936.91;;;21.81